createdAt,value
2018-06-06T00:00:22.797Z,32.20
2018-06-06T00:01:28.312Z,32.80
2018-06-06T00:02:33.808Z,31.70
2018-06-06T00:03:39.320Z,32.70
2018-06-06T00:04:44.839Z,34.90
2018-06-06T00:05:50.365Z,33.30
2018-06-06T00:06:55.879Z,31.50
2018-06-06T00:08:01.384Z,31.10
2018-06-06T00:09:06.896Z,32.90
2018-06-06T00:10:12.415Z,33.90
2018-06-06T00:11:17.927Z,33.10
2018-06-06T00:12:23.451Z,35.10
2018-06-06T00:13:28.961Z,34.20
2018-06-06T00:14:34.476Z,33.10
2018-06-06T00:15:40.010Z,32.80
2018-06-06T00:16:45.508Z,34.70
2018-06-06T00:17:51.028Z,33.10
2018-06-06T00:18:56.543Z,34.30
2018-06-06T00:20:02.051Z,33.50
2018-06-06T00:21:07.567Z,32.90
2018-06-06T00:22:13.083Z,33.60
2018-06-06T00:23:18.641Z,32.80
2018-06-06T00:24:24.111Z,33.20
2018-06-06T00:25:29.626Z,33.80
2018-06-06T00:26:35.169Z,34.30
2018-06-06T00:27:40.654Z,30.30
2018-06-06T00:28:46.190Z,30.20
2018-06-06T00:29:51.686Z,30.90
2018-06-06T00:30:57.203Z,31.30
2018-06-06T00:32:02.725Z,32.30
2018-06-06T00:33:08.233Z,32.90
2018-06-06T00:34:13.751Z,32.60
2018-06-06T00:35:19.264Z,33.70
2018-06-06T00:36:24.785Z,33.10
2018-06-06T00:37:30.299Z,35.00
2018-06-06T00:38:35.808Z,34.90
2018-06-06T00:39:41.324Z,33.40
2018-06-06T00:40:46.842Z,33.20
2018-06-06T00:41:52.354Z,34.40
2018-06-06T00:42:57.882Z,35.20
2018-06-06T00:44:03.387Z,34.80
2018-06-06T00:45:08.897Z,32.90
2018-06-06T00:46:14.424Z,33.10
2018-06-06T00:47:19.931Z,35.00
2018-06-06T00:48:25.442Z,35.40
2018-06-06T00:49:30.956Z,35.50
2018-06-06T00:50:36.474Z,37.30
2018-06-06T00:51:41.986Z,37.10
2018-06-06T00:52:47.507Z,34.90
2018-06-06T00:53:53.025Z,35.70
2018-06-06T00:54:58.534Z,36.10
2018-06-06T00:56:04.049Z,35.60
2018-06-06T00:57:09.563Z,33.20
2018-06-06T00:58:15.094Z,34.20
2018-06-06T00:59:20.613Z,34.20
2018-06-06T01:00:26.185Z,32.80
2018-06-06T01:01:31.633Z,32.90
2018-06-06T01:02:37.140Z,35.10
2018-06-06T01:03:42.677Z,36.30
2018-06-06T01:04:48.175Z,35.40
2018-06-06T01:05:53.686Z,34.10
2018-06-06T01:06:59.197Z,33.30
2018-06-06T01:08:04.715Z,34.70
2018-06-06T01:09:10.241Z,31.90
2018-06-06T01:10:15.746Z,32.60
2018-06-06T01:11:21.255Z,32.50
2018-06-06T01:12:26.775Z,32.10
2018-06-06T01:13:32.285Z,33.20
2018-06-06T01:14:37.804Z,34.30
2018-06-06T01:15:43.325Z,35.50
2018-06-06T01:16:48.837Z,34.70
2018-06-06T01:17:54.349Z,33.40
2018-06-06T01:18:59.870Z,35.20
2018-06-06T01:20:05.385Z,35.60
2018-06-06T01:21:10.890Z,37.40
2018-06-06T01:22:16.405Z,36.80
2018-06-06T01:23:21.927Z,34.00
2018-06-06T01:24:27.438Z,33.10
2018-06-06T01:25:32.955Z,33.70
2018-06-06T01:26:38.478Z,33.40
2018-06-06T01:27:43.993Z,34.50
2018-06-06T01:28:49.495Z,33.60
2018-06-06T01:29:55.011Z,33.50
2018-06-06T01:31:00.532Z,32.00
2018-06-06T01:32:06.047Z,32.30
2018-06-06T01:33:11.567Z,33.00
2018-06-06T01:34:17.082Z,33.60
2018-06-06T01:35:22.587Z,33.10
2018-06-06T01:36:28.099Z,33.60
2018-06-06T01:37:33.620Z,34.30
2018-06-06T01:38:39.210Z,34.30
2018-06-06T01:39:44.647Z,32.40
2018-06-06T01:40:50.171Z,32.80
2018-06-06T01:41:55.675Z,33.90
2018-06-06T01:43:01.193Z,32.60
2018-06-06T01:44:06.706Z,35.80
2018-06-06T01:45:12.218Z,35.50
2018-06-06T01:46:17.734Z,34.70
2018-06-06T01:47:23.245Z,34.70
2018-06-06T01:48:28.782Z,34.60
2018-06-06T01:49:34.279Z,34.60
2018-06-06T01:50:39.790Z,35.00
2018-06-06T01:51:45.306Z,36.20
2018-06-06T01:52:50.823Z,37.30
2018-06-06T01:53:56.342Z,33.90
2018-06-06T01:55:01.855Z,33.60
2018-06-06T01:56:07.369Z,33.70
2018-06-06T01:57:12.884Z,33.10
2018-06-06T01:58:18.394Z,32.70
2018-06-06T01:59:23.921Z,33.80
2018-06-06T02:00:29.438Z,33.20
2018-06-06T02:01:34.940Z,33.20
2018-06-06T02:02:40.468Z,32.90
2018-06-06T02:03:45.967Z,32.00
2018-06-06T02:04:51.482Z,32.80
2018-06-06T02:05:56.993Z,34.90
2018-06-06T02:07:02.513Z,35.90
2018-06-06T02:08:08.026Z,37.70
2018-06-06T02:09:13.546Z,38.30
2018-06-06T02:10:19.054Z,36.90
2018-06-06T02:11:24.573Z,33.70
2018-06-06T02:12:30.087Z,33.20
2018-06-06T02:13:35.620Z,33.30
2018-06-06T02:14:41.118Z,33.30
2018-06-06T02:15:46.709Z,34.20
2018-06-06T02:16:52.145Z,34.30
2018-06-06T02:17:57.655Z,33.80
2018-06-06T02:19:03.232Z,33.40
2018-06-06T02:20:08.685Z,34.00
2018-06-06T02:21:14.208Z,34.30
2018-06-06T02:22:19.716Z,33.10
2018-06-06T02:23:25.231Z,35.50
2018-06-06T02:24:30.749Z,35.50
2018-06-06T02:25:36.261Z,31.70
2018-06-06T02:26:41.774Z,31.40
2018-06-06T02:27:47.293Z,31.40
2018-06-06T02:28:52.804Z,31.90
2018-06-06T02:29:58.314Z,31.20
2018-06-06T02:31:03.835Z,32.80
2018-06-06T02:32:09.347Z,33.80
2018-06-06T02:33:14.862Z,32.00
2018-06-06T02:34:20.378Z,33.60
2018-06-06T02:35:25.896Z,33.30
2018-06-06T02:36:31.406Z,33.40
2018-06-06T02:37:36.919Z,32.20
2018-06-06T02:38:42.437Z,31.90
2018-06-06T02:39:47.958Z,32.90
2018-06-06T02:40:53.462Z,34.30
2018-06-06T02:41:58.976Z,34.30
2018-06-06T02:43:04.494Z,35.80
2018-06-06T02:44:10.056Z,34.80
2018-06-06T02:45:15.526Z,35.20
2018-06-06T02:46:21.035Z,35.20
2018-06-06T02:47:26.547Z,35.80
2018-06-06T02:48:32.069Z,36.00
2018-06-06T02:49:37.591Z,34.80
2018-06-06T02:50:43.219Z,35.20
2018-06-06T02:51:48.607Z,36.60
2018-06-06T02:52:54.125Z,34.80
2018-06-06T02:53:59.741Z,34.40
2018-06-06T02:55:05.150Z,35.20
2018-06-06T02:56:10.703Z,34.40
2018-06-06T02:57:16.186Z,34.80
2018-06-06T02:58:21.697Z,34.50
2018-06-06T02:59:27.212Z,33.90
2018-06-06T03:00:32.722Z,31.80
2018-06-06T03:01:38.237Z,32.00
2018-06-06T03:02:43.756Z,32.90
2018-06-06T03:03:49.267Z,30.80
2018-06-06T03:04:54.778Z,31.00
2018-06-06T03:06:00.299Z,30.30
2018-06-06T03:07:05.817Z,29.70
2018-06-06T03:08:11.332Z,31.20
2018-06-06T03:09:16.841Z,33.40
2018-06-06T03:10:22.353Z,34.80
2018-06-06T03:11:27.869Z,33.70
2018-06-06T03:12:33.380Z,34.90
2018-06-06T03:13:38.900Z,34.80
2018-06-06T03:14:44.408Z,34.40
2018-06-06T03:15:49.925Z,36.00
2018-06-06T03:16:55.440Z,35.10
2018-06-06T03:18:00.954Z,35.30
2018-06-06T03:19:06.467Z,34.20
2018-06-06T03:20:11.985Z,33.40
2018-06-06T03:21:17.499Z,33.50
2018-06-06T03:22:23.013Z,33.20
2018-06-06T03:23:28.528Z,33.90
2018-06-06T03:24:34.041Z,33.90
2018-06-06T03:25:39.561Z,33.20
2018-06-06T03:26:45.075Z,32.90
2018-06-06T03:27:50.586Z,33.00
2018-06-06T03:28:56.092Z,33.20
2018-06-06T03:30:01.609Z,34.00
2018-06-06T03:31:07.358Z,34.80
2018-06-06T03:32:12.674Z,33.60
2018-06-06T03:33:18.149Z,35.70
2018-06-06T03:34:23.738Z,35.00
2018-06-06T03:35:29.181Z,37.00
2018-06-06T03:36:34.711Z,35.90
2018-06-06T03:37:40.213Z,36.10
2018-06-06T03:38:45.722Z,34.80
2018-06-06T03:39:51.235Z,35.10
2018-06-06T03:40:56.756Z,35.00
2018-06-06T03:42:02.266Z,34.90
2018-06-06T03:43:07.778Z,35.00
2018-06-06T03:44:13.293Z,34.50
2018-06-06T03:45:18.804Z,34.60
2018-06-06T03:46:24.319Z,35.50
2018-06-06T03:47:29.835Z,35.00
2018-06-06T03:48:35.347Z,37.00
2018-06-06T03:49:40.867Z,36.90
2018-06-06T03:50:46.377Z,36.60
2018-06-06T03:51:51.889Z,36.40
2018-06-06T03:52:57.406Z,36.10
2018-06-06T03:54:02.926Z,36.10
2018-06-06T03:55:08.442Z,35.80
2018-06-06T03:56:13.952Z,35.50
2018-06-06T03:57:19.469Z,36.30
2018-06-06T03:58:24.973Z,36.40
2018-06-06T03:59:30.490Z,36.90
2018-06-06T04:00:36.007Z,37.10
2018-06-06T04:01:41.525Z,35.70
2018-06-06T04:02:47.042Z,34.10
2018-06-06T04:03:52.547Z,33.90
2018-06-06T04:04:58.061Z,35.10
2018-06-06T04:06:03.618Z,37.40
2018-06-06T04:07:09.091Z,38.90
2018-06-06T04:08:14.612Z,39.70
2018-06-06T04:09:20.239Z,39.30
2018-06-06T04:10:25.632Z,39.20
2018-06-06T04:11:31.148Z,40.10
2018-06-06T04:12:36.667Z,36.90
2018-06-06T04:13:42.178Z,38.80
2018-06-06T04:14:47.690Z,38.20
2018-06-06T04:15:53.206Z,39.00
2018-06-06T04:16:58.714Z,40.10
2018-06-06T04:18:04.234Z,40.20
2018-06-06T04:19:09.748Z,39.10
2018-06-06T04:20:15.262Z,38.40
2018-06-06T04:21:20.781Z,40.00
2018-06-06T04:22:26.292Z,39.30
2018-06-06T04:23:31.804Z,40.00
2018-06-06T04:24:37.315Z,39.20
2018-06-06T04:25:42.836Z,40.30
2018-06-06T04:26:48.346Z,39.30
2018-06-06T04:27:53.861Z,39.90
2018-06-06T04:28:59.372Z,39.00
2018-06-06T04:30:04.888Z,40.00
2018-06-06T04:31:10.406Z,40.80
2018-06-06T04:32:15.917Z,40.90
2018-06-06T04:33:21.432Z,41.30
2018-06-06T04:34:26.943Z,40.40
2018-06-06T04:35:32.460Z,40.60
2018-06-06T04:36:37.974Z,41.00
2018-06-06T04:37:43.496Z,40.90
2018-06-06T04:38:49.019Z,39.70
2018-06-06T04:39:54.575Z,39.10
2018-06-06T04:41:00.034Z,41.30
2018-06-06T04:42:05.548Z,40.70
2018-06-06T04:43:11.065Z,41.60
2018-06-06T04:44:16.576Z,42.40
2018-06-06T04:45:22.094Z,42.80
2018-06-06T04:46:27.642Z,42.80
2018-06-06T04:47:33.202Z,43.50
2018-06-06T04:48:38.637Z,44.20
2018-06-06T04:49:44.146Z,44.40
2018-06-06T04:50:49.664Z,44.50
2018-06-06T04:51:55.178Z,45.90
2018-06-06T04:53:00.694Z,45.50
2018-06-06T04:54:06.212Z,46.20
2018-06-06T04:55:11.728Z,44.40
2018-06-06T04:56:17.237Z,43.70
2018-06-06T04:57:22.751Z,44.30
2018-06-06T04:58:28.276Z,43.50
2018-06-06T04:59:33.783Z,44.20
2018-06-06T05:00:39.308Z,44.80
2018-06-06T05:01:44.807Z,44.60
2018-06-06T05:02:50.324Z,45.20
2018-06-06T05:03:55.839Z,44.60
2018-06-06T05:05:01.353Z,44.50
2018-06-06T05:06:06.871Z,43.40
2018-06-06T05:07:12.391Z,43.60
2018-06-06T05:08:17.901Z,42.80
2018-06-06T05:09:23.411Z,43.60
2018-06-06T05:10:28.928Z,46.10
2018-06-06T05:11:34.445Z,44.00
2018-06-06T05:12:39.961Z,44.40
2018-06-06T05:13:45.485Z,42.60
2018-06-06T05:14:51.037Z,45.00
2018-06-06T05:15:56.505Z,43.80
2018-06-06T05:17:02.018Z,44.00
2018-06-06T05:18:07.547Z,43.90
2018-06-06T05:19:13.047Z,43.20
2018-06-06T05:20:18.572Z,43.00
2018-06-06T05:21:24.079Z,44.50
2018-06-06T05:22:29.603Z,43.30
2018-06-06T05:23:35.117Z,44.50
2018-06-06T05:24:40.632Z,43.30
2018-06-06T05:25:46.148Z,43.90
2018-06-06T05:26:51.691Z,44.00
2018-06-06T05:27:57.192Z,44.00
2018-06-06T05:29:02.699Z,45.50
2018-06-06T05:30:08.208Z,45.00
2018-06-06T05:31:13.724Z,44.60
2018-06-06T05:32:19.227Z,45.10
2018-06-06T05:33:24.749Z,44.70
2018-06-06T05:34:30.263Z,45.90
2018-06-06T05:35:35.779Z,45.50
2018-06-06T05:36:41.289Z,46.20
2018-06-06T05:37:46.805Z,44.80
2018-06-06T05:38:52.323Z,45.30
2018-06-06T05:39:57.838Z,46.10
2018-06-06T05:41:03.353Z,45.00
2018-06-06T05:42:08.865Z,45.70
2018-06-06T05:43:14.387Z,46.20
2018-06-06T05:44:19.897Z,47.10
2018-06-06T05:45:25.415Z,46.10
2018-06-06T05:46:30.927Z,45.50
2018-06-06T05:47:36.443Z,45.40
2018-06-06T05:48:41.966Z,46.10
2018-06-06T05:49:47.477Z,44.90
2018-06-06T05:50:52.993Z,47.00
2018-06-06T05:51:58.514Z,47.10
2018-06-06T05:53:04.054Z,47.30
2018-06-06T05:54:09.545Z,47.70
2018-06-06T05:55:15.134Z,44.80
2018-06-06T05:56:20.569Z,43.60
2018-06-06T05:57:26.088Z,43.00
2018-06-06T05:58:31.602Z,41.90
2018-06-06T05:59:37.116Z,41.20
2018-06-06T06:00:42.654Z,42.60
2018-06-06T06:01:48.146Z,41.50
2018-06-06T06:02:53.716Z,40.30
2018-06-06T06:03:59.176Z,42.40
2018-06-06T06:05:04.702Z,41.90
2018-06-06T06:06:10.220Z,40.90
2018-06-06T06:07:15.723Z,39.20
2018-06-06T06:08:21.266Z,39.40
2018-06-06T06:09:26.770Z,40.90
2018-06-06T06:10:32.270Z,40.00
2018-06-06T06:11:37.799Z,41.10
2018-06-06T06:12:43.314Z,40.40
2018-06-06T06:13:48.820Z,40.60
2018-06-06T06:14:54.338Z,39.50
2018-06-06T06:15:59.851Z,40.50
2018-06-06T06:17:05.369Z,41.80
2018-06-06T06:18:10.891Z,40.20
2018-06-06T06:19:16.399Z,39.70
2018-06-06T06:20:21.925Z,39.00
2018-06-06T06:21:27.439Z,36.90
2018-06-06T06:22:32.949Z,37.00
2018-06-06T06:23:38.471Z,37.00
2018-06-06T06:24:43.985Z,37.00
2018-06-06T06:25:49.496Z,36.80
2018-06-06T06:26:55.017Z,35.70
2018-06-06T06:28:00.545Z,36.30
2018-06-06T06:29:06.063Z,36.40
2018-06-06T06:30:11.652Z,35.10
2018-06-06T06:31:17.177Z,35.60
2018-06-06T06:32:22.599Z,35.00
2018-06-06T06:33:28.149Z,34.10
2018-06-06T06:34:33.639Z,34.90
2018-06-06T06:35:39.149Z,34.70
2018-06-06T06:36:44.667Z,35.30
2018-06-06T06:37:50.196Z,34.10
2018-06-06T06:38:55.697Z,34.10
2018-06-06T06:40:01.211Z,33.30
2018-06-06T06:41:06.818Z,34.10
2018-06-06T06:42:12.246Z,35.10
2018-06-06T06:43:17.760Z,33.70
2018-06-06T06:44:23.279Z,33.20
2018-06-06T06:45:28.794Z,33.50
2018-06-06T06:46:34.316Z,32.30
2018-06-06T06:47:39.840Z,32.90
2018-06-06T06:48:45.345Z,33.00
2018-06-06T06:49:50.864Z,33.40
2018-06-06T06:50:56.380Z,32.30
2018-06-06T06:52:01.900Z,32.20
2018-06-06T06:53:07.414Z,31.00
2018-06-06T06:54:12.927Z,32.30
2018-06-06T06:55:18.444Z,32.60
2018-06-06T06:56:23.967Z,32.60
2018-06-06T06:57:29.482Z,32.40
2018-06-06T06:58:35.004Z,33.00
2018-06-06T06:59:40.521Z,32.50
2018-06-06T07:00:46.033Z,32.30
2018-06-06T07:01:51.554Z,31.50
2018-06-06T07:02:57.065Z,32.70
2018-06-06T07:04:02.577Z,31.50
2018-06-06T07:05:08.105Z,32.00
2018-06-06T07:06:13.610Z,32.50
2018-06-06T07:07:19.136Z,31.20
2018-06-06T07:08:24.655Z,32.20
2018-06-06T07:09:30.163Z,31.70
2018-06-06T07:10:35.684Z,31.10
2018-06-06T07:11:41.208Z,29.80
2018-06-06T07:12:46.715Z,29.30
2018-06-06T07:13:52.235Z,29.70
2018-06-06T07:14:57.750Z,28.90
2018-06-06T07:16:03.313Z,30.10
2018-06-06T07:17:08.789Z,29.80
2018-06-06T07:18:14.305Z,29.80
2018-06-06T07:19:19.878Z,28.20
2018-06-06T07:20:25.345Z,28.30
2018-06-06T07:21:30.854Z,28.30
2018-06-06T07:22:36.377Z,27.50
2018-06-06T07:23:41.894Z,27.80
2018-06-06T07:24:47.418Z,28.30
2018-06-06T07:25:52.919Z,26.60
2018-06-06T07:26:58.507Z,27.30
2018-06-06T07:28:03.955Z,27.90
2018-06-06T07:29:09.475Z,25.80
2018-06-06T07:30:14.993Z,26.30
2018-06-06T07:31:20.508Z,26.80
2018-06-06T07:32:26.036Z,26.70
2018-06-06T07:33:31.549Z,26.20
2018-06-06T07:34:37.062Z,26.60
2018-06-06T07:35:42.579Z,26.20
2018-06-06T07:36:48.098Z,25.60
2018-06-06T07:37:53.644Z,26.00
2018-06-06T07:38:59.140Z,26.20
2018-06-06T07:40:04.657Z,25.30
2018-06-06T07:41:10.169Z,25.80
2018-06-06T07:42:15.693Z,25.60
2018-06-06T07:43:21.229Z,25.10
2018-06-06T07:44:26.742Z,24.90
2018-06-06T07:45:32.272Z,23.90
2018-06-06T07:46:37.757Z,22.70
2018-06-06T07:47:43.295Z,23.40
2018-06-06T07:48:48.802Z,24.40
2018-06-06T07:49:54.314Z,24.80
2018-06-06T07:50:59.833Z,24.00
2018-06-06T07:52:05.346Z,24.60
2018-06-06T07:53:10.892Z,24.00
2018-06-06T07:54:16.389Z,23.40
2018-06-06T07:55:21.900Z,23.60
2018-06-06T07:56:27.420Z,24.80
2018-06-06T07:57:32.939Z,23.50
2018-06-06T07:58:38.465Z,23.20
2018-06-06T07:59:43.972Z,23.80
2018-06-06T08:00:49.492Z,23.30
2018-06-06T08:01:55.013Z,22.10
2018-06-06T08:03:00.540Z,23.80
2018-06-06T08:04:06.044Z,23.70
2018-06-06T08:05:11.560Z,23.40
2018-06-06T08:06:17.085Z,23.30
2018-06-06T08:07:22.604Z,22.30
2018-06-06T08:08:28.128Z,23.60
2018-06-06T08:09:33.641Z,23.50
2018-06-06T08:10:39.157Z,22.90
2018-06-06T08:11:44.679Z,23.10
2018-06-06T08:12:50.194Z,23.10
2018-06-06T08:13:55.710Z,23.30
2018-06-06T08:15:01.227Z,23.10
2018-06-06T08:16:06.747Z,23.20
2018-06-06T08:17:12.265Z,23.50
2018-06-06T08:18:17.784Z,22.30
2018-06-06T08:19:23.303Z,21.80
2018-06-06T08:20:28.825Z,22.00
2018-06-06T08:21:34.362Z,21.70
2018-06-06T08:22:39.860Z,23.40
2018-06-06T08:23:45.373Z,22.60
2018-06-06T08:24:50.898Z,23.20
2018-06-06T08:25:56.414Z,23.20
2018-06-06T08:27:01.930Z,22.40
2018-06-06T08:28:07.451Z,21.80
2018-06-06T08:29:12.972Z,21.50
2018-06-06T08:30:18.514Z,21.20
2018-06-06T08:31:24.007Z,21.10
2018-06-06T08:32:29.524Z,22.20
2018-06-06T08:33:35.046Z,21.90
2018-06-06T08:34:40.573Z,21.60
2018-06-06T08:35:46.133Z,21.80
2018-06-06T08:36:51.595Z,21.50
2018-06-06T08:37:57.114Z,22.00
2018-06-06T08:39:02.645Z,22.20
2018-06-06T08:40:08.158Z,21.20
2018-06-06T08:41:13.675Z,20.90
2018-06-06T08:42:19.196Z,20.60
2018-06-06T08:43:24.710Z,20.40
2018-06-06T08:44:30.232Z,18.50
2018-06-06T08:45:35.752Z,20.80
2018-06-06T08:46:41.271Z,20.60
2018-06-06T08:47:46.785Z,20.10
2018-06-06T08:48:52.303Z,20.70
2018-06-06T08:49:57.825Z,20.00
2018-06-06T08:51:03.349Z,21.60
2018-06-06T08:52:08.862Z,21.40
2018-06-06T08:53:14.381Z,22.20
2018-06-06T08:54:19.943Z,20.80
2018-06-06T08:55:25.427Z,20.90
2018-06-06T08:56:31.065Z,19.80
2018-06-06T08:57:36.458Z,21.80
2018-06-06T08:58:41.984Z,19.70
2018-06-06T08:59:47.498Z,19.90
2018-06-06T09:00:53.023Z,20.00
2018-06-06T09:01:58.536Z,18.60
2018-06-06T09:03:04.056Z,19.00
2018-06-06T09:04:09.597Z,20.10
2018-06-06T09:05:15.093Z,18.70
2018-06-06T09:06:20.615Z,18.50
2018-06-06T09:07:26.134Z,19.30
2018-06-06T09:08:31.654Z,18.60
2018-06-06T09:09:37.174Z,19.60
2018-06-06T09:10:42.690Z,20.60
2018-06-06T09:11:48.214Z,19.80
2018-06-06T09:12:53.739Z,20.20
2018-06-06T09:13:59.261Z,18.70
2018-06-06T09:15:04.772Z,19.50
2018-06-06T09:16:10.302Z,18.80
2018-06-06T09:17:15.813Z,20.10
2018-06-06T09:18:21.329Z,19.40
2018-06-06T09:19:26.845Z,17.90
2018-06-06T09:20:32.369Z,20.30
2018-06-06T09:21:37.888Z,19.60
2018-06-06T09:22:43.408Z,20.90
2018-06-06T09:23:48.926Z,20.40
2018-06-06T09:24:54.454Z,19.50
2018-06-06T09:25:59.965Z,18.10
2018-06-06T09:27:05.498Z,17.90
2018-06-06T09:28:11.003Z,17.80
2018-06-06T09:29:16.525Z,17.10
2018-06-06T09:30:22.045Z,19.70
2018-06-06T09:31:27.565Z,18.40
2018-06-06T09:32:33.085Z,20.00
2018-06-06T09:33:38.606Z,18.50
2018-06-06T09:34:44.126Z,19.90
2018-06-06T09:35:49.654Z,18.40
2018-06-06T09:36:55.183Z,19.00
2018-06-06T09:38:00.684Z,17.90
2018-06-06T09:39:06.208Z,17.60
2018-06-06T09:40:11.746Z,18.20
2018-06-06T09:41:17.258Z,17.50
2018-06-06T09:42:22.774Z,18.00
2018-06-06T09:43:28.306Z,19.00
2018-06-06T09:44:33.860Z,17.70
2018-06-06T09:45:39.336Z,16.80
2018-06-06T09:46:44.848Z,19.30
2018-06-06T09:47:50.367Z,17.80
2018-06-06T09:48:56.027Z,16.60
2018-06-06T09:50:01.414Z,16.60
2018-06-06T09:51:07.008Z,16.10
2018-06-06T09:52:12.455Z,16.10
2018-06-06T09:53:17.967Z,16.80
2018-06-06T09:54:23.485Z,15.90
2018-06-06T09:55:29.045Z,15.20
2018-06-06T09:56:34.638Z,15.10
2018-06-06T09:57:40.173Z,15.20
2018-06-06T09:58:45.610Z,15.00
2018-06-06T09:59:51.103Z,14.00
2018-06-06T10:00:56.612Z,13.70
2018-06-06T10:02:02.134Z,14.50
2018-06-06T10:03:07.657Z,17.70
2018-06-06T10:04:13.165Z,16.80
2018-06-06T10:05:18.713Z,17.60
2018-06-06T10:06:24.213Z,16.20
2018-06-06T10:07:29.736Z,16.80
2018-06-06T10:08:35.246Z,15.60
2018-06-06T10:09:40.775Z,15.80
2018-06-06T10:10:46.295Z,15.90
2018-06-06T10:11:51.807Z,15.30
2018-06-06T10:12:57.349Z,14.80
2018-06-06T10:14:02.850Z,15.20
2018-06-06T10:15:08.370Z,15.00
2018-06-06T10:16:14.002Z,13.60
2018-06-06T10:17:19.413Z,14.00
2018-06-06T10:18:24.959Z,13.90
2018-06-06T10:19:30.450Z,14.10
2018-06-06T10:20:36.083Z,16.90
2018-06-06T10:21:41.499Z,16.30
2018-06-06T10:22:47.016Z,17.30
2018-06-06T10:23:52.537Z,17.70
2018-06-06T10:24:58.061Z,15.60
2018-06-06T10:26:03.600Z,14.90
2018-06-06T10:27:09.096Z,15.90
2018-06-06T10:28:14.619Z,15.00
2018-06-06T10:29:20.154Z,14.50
2018-06-06T10:30:25.668Z,14.00
2018-06-06T10:31:31.209Z,13.60
2018-06-06T10:32:36.806Z,14.30
2018-06-06T10:33:42.455Z,12.90
2018-06-06T10:34:47.754Z,13.30
2018-06-06T10:35:53.379Z,12.60
2018-06-06T10:36:58.920Z,12.30
2018-06-06T10:38:04.478Z,11.60
2018-06-06T10:39:09.897Z,12.10
2018-06-06T10:40:15.548Z,12.50
2018-06-06T10:41:21.066Z,13.20
2018-06-06T10:42:26.504Z,12.40
2018-06-06T10:43:35.292Z,13.50
2018-06-06T10:44:37.460Z,13.60
2018-06-06T10:45:43.110Z,13.10
2018-06-06T10:46:48.533Z,12.80
2018-06-06T10:47:54.031Z,13.80
2018-06-06T10:48:59.536Z,13.50
2018-06-06T10:50:05.112Z,13.00
2018-06-06T10:51:10.578Z,12.50
2018-06-06T10:52:16.208Z,14.00
2018-06-06T10:53:21.691Z,13.20
2018-06-06T10:54:27.221Z,12.60
2018-06-06T10:55:32.662Z,12.50
2018-06-06T10:56:38.165Z,13.90
2018-06-06T10:57:43.693Z,13.80
2018-06-06T10:58:49.258Z,13.10
2018-06-06T10:59:54.752Z,13.00
2018-06-06T11:01:00.258Z,12.60
2018-06-06T11:02:05.811Z,12.00
2018-06-06T11:03:11.297Z,12.20
2018-06-06T11:04:16.823Z,12.30
2018-06-06T11:05:22.349Z,12.20
2018-06-06T11:06:27.860Z,12.10
2018-06-06T11:07:33.380Z,11.40
2018-06-06T11:08:38.918Z,11.10
2018-06-06T11:09:44.421Z,10.90
2018-06-06T11:10:49.963Z,10.70
2018-06-06T11:11:55.475Z,10.70
2018-06-06T11:13:00.989Z,10.80
2018-06-06T11:14:06.523Z,10.30
2018-06-06T11:15:12.027Z,10.70
2018-06-06T11:16:17.555Z,10.30
2018-06-06T11:17:23.082Z,10.60
2018-06-06T11:18:28.601Z,9.80
2018-06-06T11:19:34.120Z,10.90
2018-06-06T11:20:39.640Z,10.90
2018-06-06T11:21:45.164Z,11.10
2018-06-06T11:22:50.681Z,10.60
2018-06-06T11:23:56.204Z,10.30
2018-06-06T11:25:01.727Z,11.50
2018-06-06T11:26:07.254Z,11.80
2018-06-06T11:27:12.772Z,11.00
2018-06-06T11:28:18.303Z,11.20
2018-06-06T11:29:23.821Z,11.40
2018-06-06T11:30:29.343Z,11.20
2018-06-06T11:31:34.871Z,11.30
2018-06-06T11:32:40.382Z,11.40
2018-06-06T11:33:45.904Z,10.80
2018-06-06T11:34:51.468Z,10.60
2018-06-06T11:35:56.946Z,11.20
2018-06-06T11:37:02.481Z,10.80
2018-06-06T11:38:08.005Z,10.50
2018-06-06T11:39:13.514Z,10.50
2018-06-06T11:40:19.036Z,10.80
2018-06-06T11:41:24.557Z,10.50
2018-06-06T11:42:30.082Z,11.50
2018-06-06T11:43:35.604Z,11.10
2018-06-06T11:44:41.126Z,10.30
2018-06-06T11:45:46.644Z,10.90
2018-06-06T11:46:52.179Z,10.60
2018-06-06T11:47:57.692Z,11.10
2018-06-06T11:49:03.217Z,10.70
2018-06-06T11:50:08.739Z,10.90
2018-06-06T11:51:14.284Z,11.00
2018-06-06T11:52:19.811Z,10.90
2018-06-06T11:53:25.303Z,10.40
2018-06-06T11:54:30.835Z,10.40
2018-06-06T11:55:36.348Z,10.40
2018-06-06T11:56:41.871Z,10.50
2018-06-06T11:57:47.401Z,10.30
2018-06-06T11:58:53.003Z,10.10
2018-06-06T11:59:58.444Z,10.20
2018-06-06T12:01:04.027Z,9.90
2018-06-06T12:02:09.491Z,9.60
2018-06-06T12:03:15.004Z,10.00
2018-06-06T12:04:20.545Z,9.60
2018-06-06T12:05:26.060Z,9.90
2018-06-06T12:06:31.583Z,9.90
2018-06-06T12:07:37.109Z,9.80
2018-06-06T12:08:42.622Z,9.80
2018-06-06T12:09:48.200Z,9.30
2018-06-06T12:10:53.672Z,9.70
2018-06-06T12:11:59.204Z,10.50
2018-06-06T12:13:04.712Z,10.40
2018-06-06T12:14:10.229Z,10.10
2018-06-06T12:15:15.763Z,9.70
2018-06-06T12:16:21.284Z,9.70
2018-06-06T12:17:26.827Z,10.00
2018-06-06T12:18:32.321Z,9.80
2018-06-06T12:19:37.909Z,9.70
2018-06-06T12:20:43.372Z,10.00
2018-06-06T12:21:48.892Z,10.30
2018-06-06T12:22:54.416Z,9.60
2018-06-06T12:23:59.943Z,10.20
2018-06-06T12:25:05.469Z,10.30
2018-06-06T12:26:10.986Z,9.90
2018-06-06T12:27:16.503Z,10.20
2018-06-06T12:28:22.030Z,10.20
2018-06-06T12:29:27.564Z,10.10
2018-06-06T12:30:33.096Z,10.90
2018-06-06T12:31:38.636Z,10.90
2018-06-06T12:32:44.133Z,10.70
2018-06-06T12:33:49.643Z,10.80
2018-06-06T12:34:55.168Z,10.00
2018-06-06T12:36:00.690Z,9.80
2018-06-06T12:37:06.214Z,10.40
2018-06-06T12:38:11.743Z,9.90
2018-06-06T12:39:17.256Z,10.40
2018-06-06T12:40:22.780Z,9.90
2018-06-06T12:41:28.304Z,10.00
2018-06-06T12:42:33.838Z,9.70
2018-06-06T12:43:39.350Z,10.50
2018-06-06T12:44:44.870Z,9.40
2018-06-06T12:45:50.401Z,10.30
2018-06-06T12:46:55.929Z,9.40
2018-06-06T12:48:01.457Z,10.10
2018-06-06T12:49:06.966Z,9.90
2018-06-06T12:50:12.494Z,10.20
2018-06-06T12:51:18.030Z,11.30
2018-06-06T12:52:23.534Z,11.50
2018-06-06T12:53:29.064Z,10.90
2018-06-06T12:54:34.585Z,11.60
2018-06-06T12:55:40.107Z,11.00
2018-06-06T12:56:45.629Z,11.10
2018-06-06T12:57:51.156Z,11.20
2018-06-06T12:58:56.674Z,10.80
2018-06-06T13:00:02.207Z,11.00
2018-06-06T13:01:07.727Z,11.20
2018-06-06T13:02:13.337Z,10.30
2018-06-06T13:03:18.771Z,11.30
2018-06-06T13:04:24.298Z,11.60
2018-06-06T13:05:29.816Z,11.40
2018-06-06T13:06:35.341Z,12.00
2018-06-06T13:07:40.866Z,10.90
2018-06-06T13:08:46.388Z,11.20
2018-06-06T13:09:51.910Z,10.80
2018-06-06T13:10:57.447Z,10.60
2018-06-06T13:12:02.954Z,10.80
2018-06-06T13:13:08.492Z,10.30
2018-06-06T13:14:14.007Z,11.50
2018-06-06T13:15:19.526Z,10.40
2018-06-06T13:16:25.054Z,10.50
2018-06-06T13:17:30.583Z,10.60
2018-06-06T13:18:36.092Z,10.60
2018-06-06T13:19:41.619Z,10.50
2018-06-06T13:20:47.140Z,10.40
2018-06-06T13:21:52.664Z,10.70
2018-06-06T13:22:58.189Z,11.50
2018-06-06T13:24:03.825Z,10.90
2018-06-06T13:25:09.235Z,11.50
2018-06-06T13:26:14.764Z,11.40
2018-06-06T13:27:20.280Z,10.70
2018-06-06T13:28:25.812Z,11.10
2018-06-06T13:29:31.328Z,10.70
2018-06-06T13:30:36.855Z,11.20
2018-06-06T13:31:42.391Z,11.10
2018-06-06T13:32:47.893Z,10.30
2018-06-06T13:33:53.430Z,10.70
2018-06-06T13:34:58.960Z,10.90
2018-06-06T13:36:04.471Z,11.10
2018-06-06T13:37:09.991Z,11.30
2018-06-06T13:38:15.523Z,11.10
2018-06-06T13:39:21.041Z,11.10
2018-06-06T13:40:26.562Z,10.60
2018-06-06T13:41:32.081Z,10.30
2018-06-06T13:42:37.606Z,10.40
2018-06-06T13:43:43.130Z,9.90
2018-06-06T13:44:48.657Z,10.20
2018-06-06T13:45:54.174Z,10.10
2018-06-06T13:46:59.707Z,10.10
2018-06-06T13:48:05.225Z,10.30
2018-06-06T13:49:10.743Z,10.00
2018-06-06T13:50:16.280Z,10.30
2018-06-06T13:51:21.795Z,10.60
2018-06-06T13:52:27.332Z,10.20
2018-06-06T13:53:32.836Z,10.80
2018-06-06T13:54:38.418Z,10.60
2018-06-06T13:55:43.884Z,10.10
2018-06-06T13:56:49.418Z,11.00
2018-06-06T13:57:54.933Z,11.10
2018-06-06T13:59:00.461Z,10.30
2018-06-06T14:00:05.985Z,10.30
2018-06-06T14:01:11.548Z,10.80
2018-06-06T14:02:17.027Z,10.20
2018-06-06T14:03:22.551Z,9.90
2018-06-06T14:04:28.083Z,9.90